• Join FlightAware (Why Join?)
  • Login
  • US Flag 
05:12AM EDT


 

Airport Tracker/Info


-or-


 

Live Flight TrackerFlight Track Log ✈ JBU1098 ✈ 25-May-2013 ✈ MDSD / SDQ - KFLL

Flight Track Log - Related Links

Times and Time Zones

All times are in EDT time to prevent confusion due to time zone crossing. See the JBU1098 flight status page for this flight to view local times or setup timezone preferences in your user account.

Time Position Orientation Groundspeed Altitude Reporting Facility
EDT Latitude Longitude Course Direction KTS MPH feet Rate Location/Type
06:09AM 18.6870 -69.8382 328° Northwest  Level FlightAware Approximate
06:10AM 18.7727 -69.8948 328° Northwest  Level FlightAware Approximate
06:11AM 18.8585 -69.9514 328° Northwest  Level FlightAware Approximate
06:12AM 18.9304 -69.9989 328° Northwest  Level FlightAware Approximate
06:13AM 19.0024 -70.0466 328° Northwest  Level FlightAware Approximate
06:14AM 19.0744 -70.0942 328° Northwest  Level FlightAware Approximate
06:15AM 19.1359 -70.1352 325° Northwest  Level FlightAware Approximate
06:16AM 19.2052 -70.1872 325° Northwest  Level FlightAware Approximate
06:17AM 19.2745 -70.2391 325° Northwest  Level FlightAware Approximate
06:17AM 19.2206 -70.2122 327° Northwest 443 510 23,300  Level Miami Center
06:18AM 19.3441 -70.2906 327° Northwest  Level FlightAware Approximate
06:18AM 19.3111 -70.2869 322° Northwest 427 491 24,900  Level Miami Center
06:19AM 19.4156 -70.3391 327° Northwest  Level FlightAware Approximate
06:19AM 19.4058 -70.3639 323° Northwest 422 486 26,400  Level Miami Center
06:20AM 19.4870 -70.3877 327° Northwest  Level FlightAware Approximate
06:20AM 19.5022 -70.4297 327° Northwest 422 486 27,800  Level Miami Center
06:21AM 19.5585 -70.4362 327° Northwest  Level FlightAware Approximate
06:21AM 19.5992 -70.5044 324° Northwest 427 491 29,200  Level Miami Center
06:22AM 19.6504 -70.4988 327° Northwest  Level FlightAware Approximate
06:22AM 19.6936 -70.5769 324° Northwest 427 491 31,000  Level Miami Center
06:23AM 19.7423 -70.5614 327° Northwest  Level FlightAware Approximate
06:23AM 19.7858 -70.6456 325° Northwest 422 486 32,700  Level Miami Center
06:24AM 19.8761 -70.7119 325° Northwest 417 480 34,000 1,020 Climbing Miami Center
06:25AM 19.9661 -70.7831 323° Northwest 410 472 34,800 900 Climbing Miami Center
06:26AM 20.0583 -70.8494 326° Northwest 405 466 35,900 960 Climbing Miami Center
06:27AM 20.1442 -70.9164 324° Northwest 400 460 36,800 720 Climbing Miami Center
06:28AM 20.2322 -70.9833 325° Northwest 400 460 37,400 600 Climbing Miami Center
06:29AM 20.3203 -71.0525 324° Northwest 400 460 38,000 300 Climbing Miami Center
06:30AM 20.4083 -71.1239 323° Northwest 401 461 38,000  Level Miami Center
06:31AM 20.4847 -71.2136 312° West 401 461 38,000  Level Miami Center
06:32AM 20.5633 -71.3144 310° West 406 467 38,000  Level Miami Center
06:33AM 20.6375 -71.4089 310° West 411 473 38,000  Level Miami Center
06:34AM 20.7097 -71.5036 309° West 411 473 38,000  Level Miami Center
06:35AM 20.7817 -71.5961 310° West 411 473 38,000  Level Miami Center
06:36AM 20.8536 -71.6908 309° West 411 473 38,000  Level Miami Center
06:37AM 20.9278 -71.7836 311° West 411 473 38,000  Level Miami Center
06:38AM 21.0017 -71.8806 309° West 416 479 38,000  Level Miami Center
06:39AM 21.0736 -71.9736 310° West 416 479 38,000  Level Miami Center
06:40AM 21.1453 -72.0667 310° West 416 479 38,000  Level Miami Center
06:41AM 21.2169 -72.1619 309° West 416 479 38,000  Level Miami Center
06:42AM 21.2908 -72.2572 310° West 416 479 38,000  Level Miami Center
06:43AM 21.3625 -72.3528 309° West 416 479 38,000  Level Miami Center
06:44AM 21.4342 -72.4464 309° West 416 479 38,000  Level Miami Center
06:45AM 21.5056 -72.5400 309° West 416 479 38,000  Level Miami Center
06:46AM 21.5772 -72.6314 310° West 416 479 38,000  Level Miami Center
06:47AM 21.6464 -72.7272 308° West 416 479 38,000  Level Miami Center
06:48AM 21.7178 -72.8189 310° West 416 479 38,000  Level Miami Center
06:49AM 21.7892 -72.9128 309° West 416 479 38,000  Level Miami Center
06:50AM 21.8603 -73.0047 310° West 416 479 38,000  Level Miami Center
06:51AM 21.9294 -73.0967 309° West 416 479 38,000  Level Miami Center
06:52AM 21.9986 -73.1908 308° West 411 473 38,000  Level Miami Center
06:53AM 22.0633 -73.2808 308° West 401 461 38,000  Level Miami Center
06:54AM 22.1322 -73.3731 309° West 401 461 38,000  Level Miami Center
06:55AM 22.2056 -73.4653 311° West 401 461 38,000  Level Miami Center
06:56AM 22.2681 -73.5581 306° West 401 461 38,000  Level Miami Center
06:57AM 22.3369 -73.6528 308° West 396 456 38,000  Level Miami Center
06:58AM 22.4056 -73.7456 309° West 401 461 38,000  Level Miami Center
06:59AM 22.4764 -73.8381 310° West 401 461 38,000  Level Miami Center
07:00AM 22.5431 -73.9264 309° West 396 456 38,000  Level Miami Center
07:01AM 22.6136 -74.0194 309° West 396 456 38,000  Level Miami Center
07:02AM 22.6822 -74.1103 309° West 391 450 38,000  Level Miami Center
07:03AM 22.7486 -74.2011 308° West 391 450 38,000  Level Miami Center
07:04AM 22.8128 -74.2922 307° West 391 450 38,000  Level Miami Center
07:05AM 22.8811 -74.3833 309° West 391 450 38,000  Level Miami Center
07:06AM 22.9453 -74.4744 307° West 391 450 38,000  Level Miami Center
07:07AM 23.0136 -74.5636 310° West 391 450 38,000  Level Miami Center
07:08AM 23.0711 -74.6439 308° West 386 444 38,000  Level Miami Center
07:09AM 23.1372 -74.7353 308° West 386 444 38,000  Level Miami Center
07:10AM 23.2033 -74.8244 309° West 386 444 38,000  Level Miami Center
07:11AM 23.2692 -74.9139 309° West 386 444 38,000  Level Miami Center
07:12AM 23.3331 -75.0036 308° West 386 444 38,000  Level Miami Center
07:13AM 23.3967 -75.0908 308° West 386 444 38,000  Level Miami Center
07:14AM 23.4625 -75.1806 309° West 386 444 38,000  Level Miami Center
07:15AM 23.5283 -75.2703 309° West 386 444 38,000  Level Miami Center
07:16AM 23.5942 -75.3603 309° West 386 444 38,000  Level Miami Center
07:17AM 23.6661 -75.4614 308° West 391 450 38,000  Level Miami Center
07:18AM 23.7317 -75.5514 309° West 391 450 38,000  Level Miami Center
07:19AM 23.7972 -75.6439 308° West 391 450 38,000  Level Miami Center
07:20AM 23.8628 -75.7386 307° West 391 450 38,000  Level Miami Center
07:21AM 23.9281 -75.8267 309° West 386 444 38,000  Level Miami Center
07:22AM 23.9914 -75.9172 307° West 386 444 38,000  Level Miami Center
07:23AM 24.0569 -76.0078 308° West 386 444 38,000  Level Miami Center
07:24AM 24.1200 -76.0983 307° West 386 444 38,000  Level Miami Center
07:25AM 24.1853 -76.1892 308° West 386 444 38,000  Level Miami Center
07:26AM 24.2483 -76.2800 307° West 386 444 38,000  Level Miami Center
07:27AM 24.3133 -76.3731 307° West 386 444 38,000  Level Miami Center
07:28AM 24.3764 -76.4642 307° West 386 444 38,000  Level Miami Center
07:29AM 24.4394 -76.5553 307° West 386 444 38,000  Level Miami Center
07:30AM 24.5042 -76.6442 309° West 386 444 38,000  Level Miami Center
07:31AM 24.5608 -76.7308 306° West 386 444 38,000 -480 Level Miami Center
07:32AM 24.6256 -76.8222 308° West 386 444 37,100 -960 Descending Miami Center
07:33AM 24.6925 -76.9161 308° West 391 450 36,100 -600 Descending Miami Center
07:34AM 24.7594 -77.0097 308° West 391 450 36,000 -60 Descending Miami Center
07:35AM 24.8239 -77.1061 306° West 391 450 36,000  Level Miami Center
07:36AM 24.8908 -77.1978 309° West 391 450 36,000  Level Miami Center
07:37AM 24.9553 -77.2897 308° West 386 444 36,000  Level Miami Center
07:38AM 25.0239 -77.3908 307° West 392 451 36,000  Level Miami Center
07:39AM 25.0883 -77.4853 307° West 397 457 36,000  Level Miami Center
07:40AM 25.1631 -77.5936 307° West 406 467 36,000  Level Miami Center
07:41AM 25.2294 -77.6906 307° West 406 467 36,000  Level Miami Center
07:42AM 25.2936 -77.7850 307° West 400 460 36,000 -360 Level Miami Center
07:43AM 25.3600 -77.8800 308° West 395 455 35,400 -1,500 Descending Miami Center
07:44AM 25.4239 -77.9747 307° West 395 455 33,000 -2,460 Descending Miami Center
07:45AM 25.4922 -78.0744 307° West 396 456 30,500 -2,580 Descending Miami Center
07:46AM 25.5603 -78.1764 307° West 406 467 28,000 -2,580 Descending Miami Center
07:47AM 25.6011 -78.2897 292° West 401 461 25,400 -2,640 Descending Miami Center
07:48AM 25.6164 -78.4167 278° West 406 467 22,800 -2,280 Descending Miami Center
07:49AM 25.6278 -78.5344 276° West 401 461 20,900 -1,800 Descending Miami Center
07:50AM 25.6408 -78.6567 277° West 401 461 19,200 -1,680 Descending Miami Center
07:51AM 25.6539 -78.7769 277° West 401 461 17,600 8,460 Descending Miami Center
07:52AM 25.6608 -78.8944 274° West 395 455 36,000 -1,620 Climbing Miami Center
07:53AM 25.6758 -79.0078 278° West 385 443 14,400 -11,520 Descending Miami Center
07:54AM 25.6889 -79.1208 277° West 380 437 12,800 -1,620 Descending Miami Center
07:55AM 25.6975 -79.2272 275° West 374 430 11,200 -1,200 Descending Miami Center
07:56AM 25.7169 -79.3197 283° West 342 394 10,500 -1,140 Descending Miami Center
07:57AM 25.7492 -79.3967 295° West 298 343 9,000 -1,560 Descending Miami Center
07:58AM 25.7631 -79.4361 291° West 277 319 8,300 -1,740 Descending Miami Center
07:58AM 25.7750 -79.4708 291° West 276 318 7,500 -1,560 Descending Miami Center
07:59AM 25.8092 -79.5478 296° West 275 316 6,100 -780 Descending Miami Center
08:00AM 25.8411 -79.6178 297° West 279 321 6,100  Level Miami Center
08:01AM 25.8794 -79.6950 299° West 276 318 6,100  Level Miami Center
08:02AM 25.9178 -79.7697 300° West 274 315 6,100  Level Miami Center
08:03AM 25.9494 -79.8444 295° West 275 316 6,100  Level Miami Center
08:04AM 25.9897 -79.9242 299° West 248 285 6,100  Level Miami Center
08:05AM 26.0200 -79.9803 301° West 232 267 6,100  Level Miami Center
08:06AM 26.0606 -80.0275 314° West 230 265 6,100  Level Miami Center
08:07AM 26.1119 -80.0728 322° Northwest 233 268 6,100  Level Miami Center
08:08AM 26.1292 -80.1358 287° West 230 265 6,100 -480 Level Miami Center
08:09AM 26.1339 -80.2078 274° West 227 261 5,200 -960 Descending Miami Center
08:10AM 26.1383 -80.2889 274° West 234 269 4,100 -600 Descending Miami Center
08:11AM 26.1411 -80.3492 273° West 203 234 4,100 -540 Level Miami Center
08:12AM 26.1053 -80.3619 198° South 178 205 3,100 -1,020 Descending Miami Center
08:13AM 26.0833 -80.3197 120° Southeast 167 192 2,100 -720 Descending Miami Center
08:14AM 26.0761 -80.2661 99° East 155 178 1,700 -540 Descending Miami Center
08:15AM 26.0750 -80.2314 92° East 120 138 1,100 -660 Descending Miami Center
08:16AM 26.0736 -80.1897 92° East 122 140 500 -600 Descending Miami Center
08:18AM 26.0667 -80.1500 77° East  Level FlightAware Approximate